sensor_id;sensor_type;location;lat;lon;timestamp;temperature;humidity
45807;DHT22;31507;51.494;7.518;2023-04-06T00:00:57;1.60;94.80
45807;DHT22;31507;51.494;7.518;2023-04-06T00:03:23;1.60;94.40
45807;DHT22;31507;51.494;7.518;2023-04-06T00:05:48;1.50;94.20
45807;DHT22;31507;51.494;7.518;2023-04-06T00:08:15;1.30;94.30
45807;DHT22;31507;51.494;7.518;2023-04-06T00:10:41;1.10;94.80
45807;DHT22;31507;51.494;7.518;2023-04-06T00:13:06;0.90;95.30
45807;DHT22;31507;51.494;7.518;2023-04-06T00:15:33;0.80;95.80
45807;DHT22;31507;51.494;7.518;2023-04-06T00:17:59;0.70;96.00
45807;DHT22;31507;51.494;7.518;2023-04-06T00:20:25;0.80;97.30
45807;DHT22;31507;51.494;7.518;2023-04-06T00:22:51;0.90;97.20
45807;DHT22;31507;51.494;7.518;2023-04-06T00:25:16;1.20;96.70
45807;DHT22;31507;51.494;7.518;2023-04-06T00:27:42;1.30;96.10
45807;DHT22;31507;51.494;7.518;2023-04-06T00:30:08;1.40;96.10
45807;DHT22;31507;51.494;7.518;2023-04-06T00:32:34;1.40;95.90
45807;DHT22;31507;51.494;7.518;2023-04-06T00:35:02;1.40;95.60
45807;DHT22;31507;51.494;7.518;2023-04-06T00:37:28;1.50;95.40
45807;DHT22;31507;51.494;7.518;2023-04-06T00:39:54;1.60;95.40
45807;DHT22;31507;51.494;7.518;2023-04-06T00:42:21;1.50;95.50
45807;DHT22;31507;51.494;7.518;2023-04-06T00:44:58;1.40;95.40
45807;DHT22;31507;51.494;7.518;2023-04-06T00:47:25;1.30;95.40
45807;DHT22;31507;51.494;7.518;2023-04-06T00:49:53;1.20;95.50
45807;DHT22;31507;51.494;7.518;2023-04-06T00:52:19;1.10;95.80
45807;DHT22;31507;51.494;7.518;2023-04-06T00:54:45;1.00;95.90
45807;DHT22;31507;51.494;7.518;2023-04-06T00:57:14;0.80;96.40
45807;DHT22;31507;51.494;7.518;2023-04-06T00:59:40;0.70;96.70
45807;DHT22;31507;51.494;7.518;2023-04-06T01:02:06;0.60;97.30
45807;DHT22;31507;51.494;7.518;2023-04-06T01:04:33;0.50;97.90
45807;DHT22;31507;51.494;7.518;2023-04-06T01:06:59;0.50;98.00
45807;DHT22;31507;51.494;7.518;2023-04-06T01:09:24;0.60;98.20
45807;DHT22;31507;51.494;7.518;2023-04-06T01:11:50;0.70;98.50
45807;DHT22;31507;51.494;7.518;2023-04-06T01:14:16;0.90;98.10
45807;DHT22;31507;51.494;7.518;2023-04-06T01:16:42;1.00;97.30
45807;DHT22;31507;51.494;7.518;2023-04-06T01:19:09;1.10;97.00
45807;DHT22;31507;51.494;7.518;2023-04-06T01:21:38;1.20;96.80
45807;DHT22;31507;51.494;7.518;2023-04-06T01:24:05;1.30;96.50
45807;DHT22;31507;51.494;7.518;2023-04-06T01:26:32;1.40;96.20
45807;DHT22;31507;51.494;7.518;2023-04-06T01:28:57;1.50;95.70
45807;DHT22;31507;51.494;7.518;2023-04-06T01:31:24;1.60;95.50
45807;DHT22;31507;51.494;7.518;2023-04-06T01:33:50;1.60;95.30
45807;DHT22;31507;51.494;7.518;2023-04-06T01:36:16;1.50;95.30
45807;DHT22;31507;51.494;7.518;2023-04-06T01:38:42;1.60;95.10
45807;DHT22;31507;51.494;7.518;2023-04-06T01:41:08;1.70;94.60
45807;DHT22;31507;51.494;7.518;2023-04-06T01:43:34;1.70;94.60
45807;DHT22;31507;51.494;7.518;2023-04-06T01:46:00;1.70;94.40
45807;DHT22;31507;51.494;7.518;2023-04-06T01:48:27;1.80;93.90
45807;DHT22;31507;51.494;7.518;2023-04-06T01:50:53;1.90;93.60
45807;DHT22;31507;51.494;7.518;2023-04-06T01:53:19;1.80;93.60
45807;DHT22;31507;51.494;7.518;2023-04-06T01:55:45;1.80;93.40
45807;DHT22;31507;51.494;7.518;2023-04-06T01:58:11;1.90;93.30
45807;DHT22;31507;51.494;7.518;2023-04-06T02:00:37;1.80;93.30
45807;DHT22;31507;51.494;7.518;2023-04-06T02:03:03;1.80;93.20
45807;DHT22;31507;51.494;7.518;2023-04-06T02:05:30;1.90;93.00
45807;DHT22;31507;51.494;7.518;2023-04-06T02:07:56;1.90;92.90
45807;DHT22;31507;51.494;7.518;2023-04-06T02:10:22;1.90;92.90
45807;DHT22;31507;51.494;7.518;2023-04-06T02:12:48;2.00;92.60
45807;DHT22;31507;51.494;7.518;2023-04-06T02:15:14;2.00;92.60
45807;DHT22;31507;51.494;7.518;2023-04-06T02:17:40;2.00;92.50
45807;DHT22;31507;51.494;7.518;2023-04-06T02:20:07;2.00;92.30
45807;DHT22;31507;51.494;7.518;2023-04-06T02:22:33;2.00;92.20
45807;DHT22;31507;51.494;7.518;2023-04-06T02:24:59;2.00;92.40
45807;DHT22;31507;51.494;7.518;2023-04-06T02:27:24;2.10;92.20
45807;DHT22;31507;51.494;7.518;2023-04-06T02:29:50;2.00;92.20
45807;DHT22;31507;51.494;7.518;2023-04-06T02:32:16;2.00;92.10
45807;DHT22;31507;51.494;7.518;2023-04-06T02:34:41;2.00;92.20
45807;DHT22;31507;51.494;7.518;2023-04-06T02:37:07;2.00;92.30
45807;DHT22;31507;51.494;7.518;2023-04-06T02:39:33;1.90;92.20
45807;DHT22;31507;51.494;7.518;2023-04-06T02:41:58;1.90;92.10
45807;DHT22;31507;51.494;7.518;2023-04-06T02:44:24;1.90;92.00
45807;DHT22;31507;51.494;7.518;2023-04-06T02:46:50;1.90;92.00
45807;DHT22;31507;51.494;7.518;2023-04-06T02:49:16;1.80;92.10
45807;DHT22;31507;51.494;7.518;2023-04-06T02:51:41;1.70;92.20
45807;DHT22;31507;51.494;7.518;2023-04-06T02:54:07;1.70;92.20
45807;DHT22;31507;51.494;7.518;2023-04-06T02:56:33;1.70;92.30
45807;DHT22;31507;51.494;7.518;2023-04-06T02:58:58;1.60;92.50
45807;DHT22;31507;51.494;7.518;2023-04-06T03:01:25;1.60;92.40
45807;DHT22;31507;51.494;7.518;2023-04-06T03:03:51;1.50;92.40
45807;DHT22;31507;51.494;7.518;2023-04-06T03:06:17;1.40;92.60
45807;DHT22;31507;51.494;7.518;2023-04-06T03:08:42;1.40;92.80
45807;DHT22;31507;51.494;7.518;2023-04-06T03:11:08;1.30;92.90
45807;DHT22;31507;51.494;7.518;2023-04-06T03:13:33;1.30;92.80
45807;DHT22;31507;51.494;7.518;2023-04-06T03:15:59;1.30;93.10
45807;DHT22;31507;51.494;7.518;2023-04-06T03:18:25;1.30;92.90
45807;DHT22;31507;51.494;7.518;2023-04-06T03:20:51;1.30;93.00
45807;DHT22;31507;51.494;7.518;2023-04-06T03:23:19;1.30;93.00
45807;DHT22;31507;51.494;7.518;2023-04-06T03:25:46;1.20;93.20
45807;DHT22;31507;51.494;7.518;2023-04-06T03:28:12;1.10;93.20
45807;DHT22;31507;51.494;7.518;2023-04-06T03:30:37;1.00;93.30
45807;DHT22;31507;51.494;7.518;2023-04-06T03:33:03;1.00;93.50
45807;DHT22;31507;51.494;7.518;2023-04-06T03:35:29;1.00;93.80
45807;DHT22;31507;51.494;7.518;2023-04-06T03:37:55;1.20;93.70
45807;DHT22;31507;51.494;7.518;2023-04-06T03:40:20;1.10;93.50
45807;DHT22;31507;51.494;7.518;2023-04-06T03:42:46;1.10;93.70
45807;DHT22;31507;51.494;7.518;2023-04-06T03:45:12;1.10;93.90
45807;DHT22;31507;51.494;7.518;2023-04-06T03:47:40;1.20;93.50
45807;DHT22;31507;51.494;7.518;2023-04-06T03:50:06;1.20;93.30
45807;DHT22;31507;51.494;7.518;2023-04-06T03:52:32;1.20;93.30
45807;DHT22;31507;51.494;7.518;2023-04-06T03:54:58;1.10;93.60
45807;DHT22;31507;51.494;7.518;2023-04-06T03:57:23;1.00;94.00
45807;DHT22;31507;51.494;7.518;2023-04-06T03:59:49;1.00;93.70
45807;DHT22;31507;51.494;7.518;2023-04-06T04:02:15;0.90;93.90
45807;DHT22;31507;51.494;7.518;2023-04-06T04:04:40;0.80;93.90
45807;DHT22;31507;51.494;7.518;2023-04-06T04:07:06;0.80;94.30
45807;DHT22;31507;51.494;7.518;2023-04-06T04:09:32;0.80;94.60
45807;DHT22;31507;51.494;7.518;2023-04-06T04:11:57;0.90;94.50
45807;DHT22;31507;51.494;7.518;2023-04-06T04:14:23;0.80;94.60
45807;DHT22;31507;51.494;7.518;2023-04-06T04:16:49;0.80;94.50
45807;DHT22;31507;51.494;7.518;2023-04-06T04:19:14;0.80;94.30
45807;DHT22;31507;51.494;7.518;2023-04-06T04:21:44;0.90;94.20
45807;DHT22;31507;51.494;7.518;2023-04-06T04:24:10;1.00;94.20
45807;DHT22;31507;51.494;7.518;2023-04-06T04:26:37;1.10;93.70
45807;DHT22;31507;51.494;7.518;2023-04-06T04:29:03;1.10;93.80
45807;DHT22;31507;51.494;7.518;2023-04-06T04:31:29;1.00;93.90
45807;DHT22;31507;51.494;7.518;2023-04-06T04:33:55;1.00;93.90
45807;DHT22;31507;51.494;7.518;2023-04-06T04:36:20;1.00;93.80
45807;DHT22;31507;51.494;7.518;2023-04-06T04:38:46;0.90;93.90
45807;DHT22;31507;51.494;7.518;2023-04-06T04:41:11;0.90;93.80
45807;DHT22;31507;51.494;7.518;2023-04-06T04:43:37;1.00;93.70
45807;DHT22;31507;51.494;7.518;2023-04-06T04:46:04;1.00;93.50
45807;DHT22;31507;51.494;7.518;2023-04-06T04:48:30;1.00;93.60
45807;DHT22;31507;51.494;7.518;2023-04-06T04:50:56;1.00;93.70
45807;DHT22;31507;51.494;7.518;2023-04-06T04:53:21;1.10;93.40
45807;DHT22;31507;51.494;7.518;2023-04-06T04:55:47;1.10;93.20
45807;DHT22;31507;51.494;7.518;2023-04-06T04:58:13;1.00;93.40
45807;DHT22;31507;51.494;7.518;2023-04-06T05:00:42;1.00;93.50
45807;DHT22;31507;51.494;7.518;2023-04-06T05:03:08;0.90;93.60
45807;DHT22;31507;51.494;7.518;2023-04-06T05:05:35;0.80;93.80
45807;DHT22;31507;51.494;7.518;2023-04-06T05:08:01;0.90;93.70
45807;DHT22;31507;51.494;7.518;2023-04-06T05:10:27;1.00;93.30
45807;DHT22;31507;51.494;7.518;2023-04-06T05:12:52;1.00;93.20
45807;DHT22;31507;51.494;7.518;2023-04-06T05:15:18;1.10;93.10
45807;DHT22;31507;51.494;7.518;2023-04-06T05:17:44;1.20;93.10
45807;DHT22;31507;51.494;7.518;2023-04-06T05:20:10;1.20;92.70
45807;DHT22;31507;51.494;7.518;2023-04-06T05:22:35;1.40;92.30
45807;DHT22;31507;51.494;7.518;2023-04-06T05:25:02;1.50;92.00
45807;DHT22;31507;51.494;7.518;2023-04-06T05:27:28;1.60;91.70
45807;DHT22;31507;51.494;7.518;2023-04-06T05:29:54;1.70;91.20
45807;DHT22;31507;51.494;7.518;2023-04-06T05:32:20;2.00;90.60
45807;DHT22;31507;51.494;7.518;2023-04-06T05:34:48;2.10;90.20
45807;DHT22;31507;51.494;7.518;2023-04-06T05:37:15;2.30;90.10
45807;DHT22;31507;51.494;7.518;2023-04-06T05:39:41;2.50;89.20
45807;DHT22;31507;51.494;7.518;2023-04-06T05:42:07;2.60;88.10
45807;DHT22;31507;51.494;7.518;2023-04-06T05:44:32;2.70;87.80
45807;DHT22;31507;51.494;7.518;2023-04-06T05:46:58;2.80;86.70
45807;DHT22;31507;51.494;7.518;2023-04-06T05:49:24;2.80;87.20
45807;DHT22;31507;51.494;7.518;2023-04-06T05:51:50;2.80;86.50
45807;DHT22;31507;51.494;7.518;2023-04-06T05:54:15;2.80;86.80
45807;DHT22;31507;51.494;7.518;2023-04-06T05:56:41;3.00;86.60
45807;DHT22;31507;51.494;7.518;2023-04-06T05:59:06;3.00;86.50
45807;DHT22;31507;51.494;7.518;2023-04-06T06:01:33;3.00;85.50
45807;DHT22;31507;51.494;7.518;2023-04-06T06:04:01;3.10;85.10
45807;DHT22;31507;51.494;7.518;2023-04-06T06:06:28;3.10;84.60
45807;DHT22;31507;51.494;7.518;2023-04-06T06:08:56;3.20;84.90
45807;DHT22;31507;51.494;7.518;2023-04-06T06:11:24;3.20;84.60
45807;DHT22;31507;51.494;7.518;2023-04-06T06:13:50;3.20;84.20
45807;DHT22;31507;51.494;7.518;2023-04-06T06:16:17;3.20;83.90
45807;DHT22;31507;51.494;7.518;2023-04-06T06:18:43;3.40;83.60
45807;DHT22;31507;51.494;7.518;2023-04-06T06:21:09;3.40;83.50
45807;DHT22;31507;51.494;7.518;2023-04-06T06:23:34;3.50;83.50
45807;DHT22;31507;51.494;7.518;2023-04-06T06:26:00;3.50;83.30
45807;DHT22;31507;51.494;7.518;2023-04-06T06:28:26;3.60;82.00
45807;DHT22;31507;51.494;7.518;2023-04-06T06:30:52;3.70;82.50
45807;DHT22;31507;51.494;7.518;2023-04-06T06:33:18;3.80;82.00
45807;DHT22;31507;51.494;7.518;2023-04-06T06:35:44;3.90;82.00
45807;DHT22;31507;51.494;7.518;2023-04-06T06:38:09;4.10;81.30
45807;DHT22;31507;51.494;7.518;2023-04-06T06:40:35;4.20;80.90
45807;DHT22;31507;51.494;7.518;2023-04-06T06:43:01;4.50;80.90
45807;DHT22;31507;51.494;7.518;2023-04-06T06:45:27;4.70;80.10
45807;DHT22;31507;51.494;7.518;2023-04-06T06:47:52;4.80;80.20
45807;DHT22;31507;51.494;7.518;2023-04-06T06:50:18;5.10;79.20
45807;DHT22;31507;51.494;7.518;2023-04-06T06:52:43;5.20;78.80
45807;DHT22;31507;51.494;7.518;2023-04-06T06:55:10;5.50;79.20
45807;DHT22;31507;51.494;7.518;2023-04-06T06:57:36;5.70;78.50
45807;DHT22;31507;51.494;7.518;2023-04-06T07:00:02;5.90;78.20
45807;DHT22;31507;51.494;7.518;2023-04-06T07:02:30;6.10;76.30
45807;DHT22;31507;51.494;7.518;2023-04-06T07:04:56;6.30;76.40
45807;DHT22;31507;51.494;7.518;2023-04-06T07:07:22;6.40;76.20
45807;DHT22;31507;51.494;7.518;2023-04-06T07:09:47;6.50;74.80
45807;DHT22;31507;51.494;7.518;2023-04-06T07:12:13;6.60;74.80
45807;DHT22;31507;51.494;7.518;2023-04-06T07:14:39;6.80;74.30
45807;DHT22;31507;51.494;7.518;2023-04-06T07:17:05;7.00;73.50
45807;DHT22;31507;51.494;7.518;2023-04-06T07:19:30;7.10;72.40
45807;DHT22;31507;51.494;7.518;2023-04-06T07:21:56;7.20;72.50
45807;DHT22;31507;51.494;7.518;2023-04-06T07:24:21;7.30;72.10
45807;DHT22;31507;51.494;7.518;2023-04-06T07:26:47;7.50;70.80
45807;DHT22;31507;51.494;7.518;2023-04-06T07:29:13;7.70;71.40
45807;DHT22;31507;51.494;7.518;2023-04-06T07:31:38;7.80;70.20
45807;DHT22;31507;51.494;7.518;2023-04-06T07:34:04;8.10;70.10
45807;DHT22;31507;51.494;7.518;2023-04-06T07:36:30;8.30;68.70
45807;DHT22;31507;51.494;7.518;2023-04-06T07:38:56;8.20;68.30
45807;DHT22;31507;51.494;7.518;2023-04-06T07:41:21;8.20;69.10
45807;DHT22;31507;51.494;7.518;2023-04-06T07:43:47;8.30;69.00
45807;DHT22;31507;51.494;7.518;2023-04-06T07:46:13;8.30;68.10
45807;DHT22;31507;51.494;7.518;2023-04-06T07:48:39;8.50;68.40
45807;DHT22;31507;51.494;7.518;2023-04-06T07:51:05;8.70;68.90
45807;DHT22;31507;51.494;7.518;2023-04-06T07:53:32;8.80;67.70
45807;DHT22;31507;51.494;7.518;2023-04-06T07:56:00;9.00;67.00
45807;DHT22;31507;51.494;7.518;2023-04-06T07:58:26;9.00;67.10
45807;DHT22;31507;51.494;7.518;2023-04-06T08:00:52;9.10;66.60
45807;DHT22;31507;51.494;7.518;2023-04-06T08:03:17;9.10;65.70
45807;DHT22;31507;51.494;7.518;2023-04-06T08:05:46;9.10;65.80
45807;DHT22;31507;51.494;7.518;2023-04-06T08:08:11;9.10;66.10
45807;DHT22;31507;51.494;7.518;2023-04-06T08:10:37;9.30;64.90
45807;DHT22;31507;51.494;7.518;2023-04-06T08:13:02;9.50;65.20
45807;DHT22;31507;51.494;7.518;2023-04-06T08:15:28;9.60;65.30
45807;DHT22;31507;51.494;7.518;2023-04-06T08:17:54;9.80;64.30
45807;DHT22;31507;51.494;7.518;2023-04-06T08:20:22;10.00;63.90
45807;DHT22;31507;51.494;7.518;2023-04-06T08:22:48;10.00;63.80
45807;DHT22;31507;51.494;7.518;2023-04-06T08:25:13;10.10;63.90
45807;DHT22;31507;51.494;7.518;2023-04-06T08:27:39;10.20;63.20
45807;DHT22;31507;51.494;7.518;2023-04-06T08:30:05;10.40;63.50
45807;DHT22;31507;51.494;7.518;2023-04-06T08:32:31;10.50;62.90
45807;DHT22;31507;51.494;7.518;2023-04-06T08:34:57;10.80;62.50
45807;DHT22;31507;51.494;7.518;2023-04-06T08:37:23;11.00;62.00
45807;DHT22;31507;51.494;7.518;2023-04-06T08:39:49;11.00;61.80
45807;DHT22;31507;51.494;7.518;2023-04-06T08:42:21;11.20;62.40
45807;DHT22;31507;51.494;7.518;2023-04-06T08:44:50;11.40;61.50
45807;DHT22;31507;51.494;7.518;2023-04-06T08:47:17;11.30;61.90
45807;DHT22;31507;51.494;7.518;2023-04-06T08:49:44;11.50;62.40
45807;DHT22;31507;51.494;7.518;2023-04-06T08:52:11;11.70;62.10
45807;DHT22;31507;51.494;7.518;2023-04-06T08:54:37;11.80;61.70
45807;DHT22;31507;51.494;7.518;2023-04-06T08:57:04;11.90;61.20
45807;DHT22;31507;51.494;7.518;2023-04-06T08:59:31;12.10;60.80
45807;DHT22;31507;51.494;7.518;2023-04-06T09:01:59;12.40;61.00
45807;DHT22;31507;51.494;7.518;2023-04-06T09:04:27;12.20;59.90
45807;DHT22;31507;51.494;7.518;2023-04-06T09:06:53;12.50;60.00
45807;DHT22;31507;51.494;7.518;2023-04-06T09:09:19;12.70;59.30
45807;DHT22;31507;51.494;7.518;2023-04-06T09:11:49;13.00;58.50
45807;DHT22;31507;51.494;7.518;2023-04-06T09:14:16;13.20;58.20
45807;DHT22;31507;51.494;7.518;2023-04-06T09:16:43;13.10;58.40
45807;DHT22;31507;51.494;7.518;2023-04-06T09:19:10;13.30;57.80
45807;DHT22;31507;51.494;7.518;2023-04-06T09:21:36;13.60;55.90
45807;DHT22;31507;51.494;7.518;2023-04-06T09:24:02;14.10;56.00
45807;DHT22;31507;51.494;7.518;2023-04-06T09:26:28;14.40;55.40
45807;DHT22;31507;51.494;7.518;2023-04-06T09:28:56;14.50;54.90
45807;DHT22;31507;51.494;7.518;2023-04-06T09:31:29;14.60;55.00
45807;DHT22;31507;51.494;7.518;2023-04-06T09:33:56;15.20;54.00
45807;DHT22;31507;51.494;7.518;2023-04-06T09:36:33;15.20;53.90
45807;DHT22;31507;51.494;7.518;2023-04-06T09:39:04;14.70;53.40
45807;DHT22;31507;51.494;7.518;2023-04-06T09:41:30;14.70;53.10
45807;DHT22;31507;51.494;7.518;2023-04-06T09:44:06;14.60;53.50
45807;DHT22;31507;51.494;7.518;2023-04-06T09:46:34;14.00;52.00
45807;DHT22;31507;51.494;7.518;2023-04-06T09:49:03;14.10;53.50
45807;DHT22;31507;51.494;7.518;2023-04-06T09:51:37;14.30;52.80
45807;DHT22;31507;51.494;7.518;2023-04-06T09:54:03;14.20;51.60
45807;DHT22;31507;51.494;7.518;2023-04-06T09:59:12;13.70;50.60
45807;DHT22;31507;51.494;7.518;2023-04-06T10:01:39;13.90;52.80
45807;DHT22;31507;51.494;7.518;2023-04-06T10:04:20;14.40;52.30
45807;DHT22;31507;51.494;7.518;2023-04-06T10:06:47;14.70;52.20
45807;DHT22;31507;51.494;7.518;2023-04-06T10:09:18;14.60;50.90
45807;DHT22;31507;51.494;7.518;2023-04-06T10:11:47;14.20;51.80
45807;DHT22;31507;51.494;7.518;2023-04-06T10:14:15;14.20;51.60
45807;DHT22;31507;51.494;7.518;2023-04-06T10:16:41;14.20;51.90
45807;DHT22;31507;51.494;7.518;2023-04-06T10:19:14;14.30;51.20
45807;DHT22;31507;51.494;7.518;2023-04-06T10:21:41;14.20;50.40
45807;DHT22;31507;51.494;7.518;2023-04-06T10:24:12;14.20;50.60
45807;DHT22;31507;51.494;7.518;2023-04-06T10:26:39;14.00;51.40
45807;DHT22;31507;51.494;7.518;2023-04-06T10:29:05;14.10;51.60
45807;DHT22;31507;51.494;7.518;2023-04-06T10:31:31;14.00;50.80
45807;DHT22;31507;51.494;7.518;2023-04-06T10:34:01;13.90;51.10
45807;DHT22;31507;51.494;7.518;2023-04-06T10:36:32;13.80;50.50
45807;DHT22;31507;51.494;7.518;2023-04-06T10:39:00;13.70;50.90
45807;DHT22;31507;51.494;7.518;2023-04-06T10:41:34;13.70;50.60
45807;DHT22;31507;51.494;7.518;2023-04-06T10:44:00;13.90;52.00
45807;DHT22;31507;51.494;7.518;2023-04-06T10:46:31;14.00;51.50
45807;DHT22;31507;51.494;7.518;2023-04-06T10:48:57;14.00;52.20
45807;DHT22;31507;51.494;7.518;2023-04-06T10:51:28;13.90;51.50
45807;DHT22;31507;51.494;7.518;2023-04-06T10:53:55;13.70;52.10
45807;DHT22;31507;51.494;7.518;2023-04-06T10:56:24;13.80;52.20
45807;DHT22;31507;51.494;7.518;2023-04-06T10:58:53;14.10;51.80
45807;DHT22;31507;51.494;7.518;2023-04-06T11:01:22;14.10;51.40
45807;DHT22;31507;51.494;7.518;2023-04-06T11:03:55;14.00;50.10
45807;DHT22;31507;51.494;7.518;2023-04-06T11:06:23;14.00;50.30
45807;DHT22;31507;51.494;7.518;2023-04-06T11:08:50;14.30;50.50
45807;DHT22;31507;51.494;7.518;2023-04-06T11:11:18;14.40;49.80
45807;DHT22;31507;51.494;7.518;2023-04-06T11:16:20;14.20;49.60
45807;DHT22;31507;51.494;7.518;2023-04-06T11:18:57;14.20;48.70
45807;DHT22;31507;51.494;7.518;2023-04-06T11:21:43;14.20;49.60
45807;DHT22;31507;51.494;7.518;2023-04-06T11:24:09;14.80;48.90
45807;DHT22;31507;51.494;7.518;2023-04-06T11:26:43;15.10;49.40
45807;DHT22;31507;51.494;7.518;2023-04-06T11:29:10;15.10;48.10
45807;DHT22;31507;51.494;7.518;2023-04-06T11:31:46;14.90;49.20
45807;DHT22;31507;51.494;7.518;2023-04-06T11:34:13;14.80;48.30
45807;DHT22;31507;51.494;7.518;2023-04-06T11:36:43;14.60;48.40
45807;DHT22;31507;51.494;7.518;2023-04-06T11:39:10;14.40;49.10
45807;DHT22;31507;51.494;7.518;2023-04-06T11:41:36;14.50;49.60
45807;DHT22;31507;51.494;7.518;2023-04-06T11:44:02;14.40;49.50
45807;DHT22;31507;51.494;7.518;2023-04-06T11:46:28;14.50;49.70
45807;DHT22;31507;51.494;7.518;2023-04-06T11:48:58;14.40;49.90
45807;DHT22;31507;51.494;7.518;2023-04-06T11:51:24;14.40;50.20
45807;DHT22;31507;51.494;7.518;2023-04-06T11:53:51;14.20;50.30
45807;DHT22;31507;51.494;7.518;2023-04-06T11:56:45;13.90;50.00
45807;DHT22;31507;51.494;7.518;2023-04-06T11:59:11;13.70;50.70
45807;DHT22;31507;51.494;7.518;2023-04-06T12:01:45;13.70;50.00
45807;DHT22;31507;51.494;7.518;2023-04-06T12:04:10;13.80;50.50
45807;DHT22;31507;51.494;7.518;2023-04-06T12:06:36;13.90;50.70
45807;DHT22;31507;51.494;7.518;2023-04-06T12:09:02;14.20;51.10
45807;DHT22;31507;51.494;7.518;2023-04-06T12:11:27;14.30;51.40
45807;DHT22;31507;51.494;7.518;2023-04-06T12:13:53;14.10;50.90
45807;DHT22;31507;51.494;7.518;2023-04-06T12:16:19;13.90;51.20
45807;DHT22;31507;51.494;7.518;2023-04-06T12:18:44;13.80;51.70
45807;DHT22;31507;51.494;7.518;2023-04-06T12:21:10;13.90;52.50
45807;DHT22;31507;51.494;7.518;2023-04-06T12:23:36;14.10;52.60
45807;DHT22;31507;51.494;7.518;2023-04-06T12:26:03;14.20;52.50
45807;DHT22;31507;51.494;7.518;2023-04-06T12:28:28;14.20;52.30
45807;DHT22;31507;51.494;7.518;2023-04-06T12:30:55;14.30;52.80
45807;DHT22;31507;51.494;7.518;2023-04-06T12:33:21;14.30;52.20
45807;DHT22;31507;51.494;7.518;2023-04-06T12:35:46;14.30;52.80
45807;DHT22;31507;51.494;7.518;2023-04-06T12:38:12;14.30;52.50
45807;DHT22;31507;51.494;7.518;2023-04-06T12:40:38;14.30;53.00
45807;DHT22;31507;51.494;7.518;2023-04-06T12:43:05;14.30;53.30
45807;DHT22;31507;51.494;7.518;2023-04-06T12:45:31;14.30;53.00
45807;DHT22;31507;51.494;7.518;2023-04-06T12:47:57;14.40;53.00
45807;DHT22;31507;51.494;7.518;2023-04-06T12:50:23;14.60;53.00
45807;DHT22;31507;51.494;7.518;2023-04-06T12:52:48;14.60;53.10
45807;DHT22;31507;51.494;7.518;2023-04-06T12:55:14;14.50;52.90
45807;DHT22;31507;51.494;7.518;2023-04-06T12:57:40;14.40;52.50
45807;DHT22;31507;51.494;7.518;2023-04-06T13:00:07;14.30;52.80
45807;DHT22;31507;51.494;7.518;2023-04-06T13:02:34;14.40;52.90
45807;DHT22;31507;51.494;7.518;2023-04-06T13:04:59;14.40;52.90
45807;DHT22;31507;51.494;7.518;2023-04-06T13:07:25;14.60;53.20
45807;DHT22;31507;51.494;7.518;2023-04-06T13:09:51;14.70;53.50
45807;DHT22;31507;51.494;7.518;2023-04-06T13:12:17;14.90;54.00
45807;DHT22;31507;51.494;7.518;2023-04-06T13:14:43;15.20;54.00
45807;DHT22;31507;51.494;7.518;2023-04-06T13:17:09;15.20;53.70
45807;DHT22;31507;51.494;7.518;2023-04-06T13:19:35;15.00;53.80
45807;DHT22;31507;51.494;7.518;2023-04-06T13:22:00;15.00;53.90
45807;DHT22;31507;51.494;7.518;2023-04-06T13:24:26;15.10;53.80
45807;DHT22;31507;51.494;7.518;2023-04-06T13:26:52;15.20;54.50
45807;DHT22;31507;51.494;7.518;2023-04-06T13:29:17;15.10;54.30
45807;DHT22;31507;51.494;7.518;2023-04-06T13:31:43;14.80;54.60
45807;DHT22;31507;51.494;7.518;2023-04-06T13:34:08;14.80;55.30
45807;DHT22;31507;51.494;7.518;2023-04-06T13:36:34;14.90;55.60
45807;DHT22;31507;51.494;7.518;2023-04-06T13:39:00;14.90;54.80
45807;DHT22;31507;51.494;7.518;2023-04-06T13:41:25;14.70;55.00
45807;DHT22;31507;51.494;7.518;2023-04-06T13:43:52;14.50;55.40
45807;DHT22;31507;51.494;7.518;2023-04-06T13:46:18;14.30;55.30
45807;DHT22;31507;51.494;7.518;2023-04-06T13:48:44;14.20;55.40
45807;DHT22;31507;51.494;7.518;2023-04-06T13:51:13;14.20;56.70
45807;DHT22;31507;51.494;7.518;2023-04-06T13:53:39;14.20;55.70
45807;DHT22;31507;51.494;7.518;2023-04-06T13:56:06;13.90;56.10
45807;DHT22;31507;51.494;7.518;2023-04-06T13:58:32;13.80;56.70
45807;DHT22;31507;51.494;7.518;2023-04-06T14:01:06;13.70;56.60
45807;DHT22;31507;51.494;7.518;2023-04-06T14:03:33;13.40;57.00
45807;DHT22;31507;51.494;7.518;2023-04-06T14:05:59;13.30;57.50
45807;DHT22;31507;51.494;7.518;2023-04-06T14:08:25;13.20;57.50
45807;DHT22;31507;51.494;7.518;2023-04-06T14:10:50;13.20;58.30
45807;DHT22;31507;51.494;7.518;2023-04-06T14:13:16;13.10;58.50
45807;DHT22;31507;51.494;7.518;2023-04-06T14:15:42;13.10;58.70
45807;DHT22;31507;51.494;7.518;2023-04-06T14:18:08;13.00;57.30
45807;DHT22;31507;51.494;7.518;2023-04-06T14:20:34;13.00;57.70
45807;DHT22;31507;51.494;7.518;2023-04-06T14:23:03;13.10;56.80
45807;DHT22;31507;51.494;7.518;2023-04-06T14:25:29;13.00;56.70
45807;DHT22;31507;51.494;7.518;2023-04-06T14:27:59;12.90;57.20
45807;DHT22;31507;51.494;7.518;2023-04-06T14:30:25;12.80;57.10
45807;DHT22;31507;51.494;7.518;2023-04-06T14:32:51;12.80;57.60
45807;DHT22;31507;51.494;7.518;2023-04-06T14:35:17;12.80;57.70
45807;DHT22;31507;51.494;7.518;2023-04-06T14:37:42;12.80;58.40
45807;DHT22;31507;51.494;7.518;2023-04-06T14:40:08;12.90;58.20
45807;DHT22;31507;51.494;7.518;2023-04-06T14:42:35;12.90;57.80
45807;DHT22;31507;51.494;7.518;2023-04-06T14:45:01;12.90;58.10
45807;DHT22;31507;51.494;7.518;2023-04-06T14:47:29;12.80;58.20
45807;DHT22;31507;51.494;7.518;2023-04-06T14:49:54;12.70;59.20
45807;DHT22;31507;51.494;7.518;2023-04-06T14:52:20;12.70;59.20
45807;DHT22;31507;51.494;7.518;2023-04-06T14:54:45;12.60;60.60
45807;DHT22;31507;51.494;7.518;2023-04-06T14:57:11;12.50;59.90
45807;DHT22;31507;51.494;7.518;2023-04-06T14:59:37;12.40;61.10
45807;DHT22;31507;51.494;7.518;2023-04-06T15:02:03;12.40;61.00
45807;DHT22;31507;51.494;7.518;2023-04-06T15:04:29;12.40;61.60
45807;DHT22;31507;51.494;7.518;2023-04-06T15:06:55;12.30;62.40
45807;DHT22;31507;51.494;7.518;2023-04-06T15:09:21;12.20;62.00
45807;DHT22;31507;51.494;7.518;2023-04-06T15:11:46;12.10;62.10
45807;DHT22;31507;51.494;7.518;2023-04-06T15:14:12;12.10;62.40
45807;DHT22;31507;51.494;7.518;2023-04-06T15:16:38;12.00;62.90
45807;DHT22;31507;51.494;7.518;2023-04-06T15:19:03;12.00;63.60
45807;DHT22;31507;51.494;7.518;2023-04-06T15:21:29;11.90;64.20
45807;DHT22;31507;51.494;7.518;2023-04-06T15:23:56;11.70;65.20
45807;DHT22;31507;51.494;7.518;2023-04-06T15:26:21;11.60;65.70
45807;DHT22;31507;51.494;7.518;2023-04-06T15:28:47;11.60;65.70
45807;DHT22;31507;51.494;7.518;2023-04-06T15:31:16;11.50;66.40
45807;DHT22;31507;51.494;7.518;2023-04-06T15:33:43;11.50;66.90
45807;DHT22;31507;51.494;7.518;2023-04-06T15:36:22;11.50;68.50
45807;DHT22;31507;51.494;7.518;2023-04-06T15:38:49;11.40;68.60
45807;DHT22;31507;51.494;7.518;2023-04-06T15:41:15;11.30;68.90